This is the latest recevied weather packets stored in our database for station/object SP1BMW-13. If no packets are shown the sender has not sent any weather packets the latest 10 day(s).
| Time | Temp. | Humidity | Pressure | Rain* | Wind** | Luminosity | Snow |
|---|---|---|---|---|---|---|---|
| 1788086317 | 25.56° C | 52% | 1007.6 hPa | 0 mm | 0.89 m/s, 304° | 158 W/m² | - |
| 1788086256 | 25.56° C | 53% | 1007.8 hPa | 0 mm | 0.89 m/s, 303° | 201 W/m² | - |
| 1788086197 | 25.56° C | 52% | 1007.6 hPa | 0 mm | 0.45 m/s, 11° | 240 W/m² | - |
| 1788086140 | 25.56° C | 52% | 1007.8 hPa | 0 mm | 0.89 m/s, 200° | 254 W/m² | - |
| 1788086080 | 25.56° C | 52% | 1007.7 hPa | 0 mm | 0.89 m/s, 195° | 354 W/m² | - |
| 1788086017 | 25.56° C | 53% | 1007.7 hPa | 0 mm | 0.89 m/s, 156° | 440 W/m² | - |
| 1788085957 | 25° C | 54% | 1007.8 hPa | 0 mm | 0 m/s | 288 W/m² | - |
| 1788085900 | 25° C | 55% | 1008 hPa | 0 mm | 0 m/s | 343 W/m² | - |
| 1788085837 | 24.44° C | 56% | 1007.9 hPa | 0 mm | 0 m/s | 385 W/m² | - |
| 1788085777 | 24.44° C | 55% | 1007.9 hPa | 0 mm | 0 m/s | 783 W/m² | - |
| 1788085719 | 23.89° C | 58% | 1008 hPa | 0 mm | 0.89 m/s, 236° | 451 W/m² | - |
| 1788085657 | 23.89° C | 56% | 1007.9 hPa | 0 mm | 0.45 m/s, 244° | 808 W/m² | - |
| 1788085596 | 23.89° C | 56% | 1008 hPa | 0 mm | 1.34 m/s, 39° | 467 W/m² | - |
| 1788085536 | 23.89° C | 57% | 1007.9 hPa | 0 mm | 0.45 m/s, 344° | 235 W/m² | - |
| 1788085476 | 23.89° C | 56% | 1008 hPa | 0 mm | 0.45 m/s, 317° | 197 W/m² | - |
| 1788085417 | 23.89° C | 57% | 1008.1 hPa | 0 mm | 0.45 m/s, 317° | 185 W/m² | - |
| 1788085357 | 23.89° C | 55% | 1007.9 hPa | 0 mm | 0.45 m/s, 221° | 177 W/m² | - |
| 1788085296 | 23.89° C | 56% | 1008.1 hPa | 0 mm | 1.34 m/s, 279° | 159 W/m² | - |
| 1788085237 | 23.89° C | 56% | 1008 hPa | 0 mm | 0.89 m/s, 190° | 147 W/m² | - |
| 1788085177 | 23.89° C | 55% | 1008.1 hPa | 0 mm | 1.34 m/s, 270° | 113 W/m² | - |
| 1788085116 | 24.44° C | 55% | 1007.9 hPa | 0 mm | 0.45 m/s, 287° | 85 W/m² | - |
| 1788085057 | 24.44° C | 56% | 1008.1 hPa | 0 mm | 1.34 m/s, 295° | 70 W/m² | - |
| 1788084997 | 24.44° C | 56% | 1007.9 hPa | 0 mm | 0.89 m/s, 294° | 74 W/m² | - |
| 1788084937 | 24.44° C | 55% | 1008.1 hPa | 0 mm | 1.34 m/s, 353° | 83 W/m² | - |
| 1788084877 | 24.44° C | 55% | 1007.9 hPa | 0 mm | 0.89 m/s, 220° | 91 W/m² | - |
* Rain latest hour (hover to see other rain measurements)
** Current wind speed in m/s (hover to see current wind gust speed)